sensor_id;sensor_type;location;lat;lon;timestamp;P1;durP1;ratioP1;P2;durP2;ratioP2
20445;SDS011;10382;49.140;9.234;2023-02-28T00:02:27;18.95;;;7.32;;
20445;SDS011;10382;49.140;9.234;2023-02-28T00:04:54;12.38;;;5.00;;
20445;SDS011;10382;49.140;9.234;2023-02-28T00:07:26;12.95;;;4.50;;
20445;SDS011;10382;49.140;9.234;2023-02-28T00:09:53;17.15;;;6.25;;
20445;SDS011;10382;49.140;9.234;2023-02-28T00:12:19;9.35;;;4.60;;
20445;SDS011;10382;49.140;9.234;2023-02-28T00:14:46;10.10;;;4.65;;
20445;SDS011;10382;49.140;9.234;2023-02-28T00:17:13;12.10;;;4.65;;
20445;SDS011;10382;49.140;9.234;2023-02-28T00:19:42;10.68;;;4.90;;
20445;SDS011;10382;49.140;9.234;2023-02-28T00:22:09;8.82;;;4.30;;
20445;SDS011;10382;49.140;9.234;2023-02-28T00:24:36;7.55;;;3.70;;
20445;SDS011;10382;49.140;9.234;2023-02-28T00:27:03;10.15;;;4.47;;
20445;SDS011;10382;49.140;9.234;2023-02-28T00:29:30;13.23;;;5.00;;
20445;SDS011;10382;49.140;9.234;2023-02-28T00:31:57;13.90;;;4.32;;
20445;SDS011;10382;49.140;9.234;2023-02-28T00:34:24;9.55;;;3.88;;
20445;SDS011;10382;49.140;9.234;2023-02-28T00:36:52;16.70;;;6.45;;
20445;SDS011;10382;49.140;9.234;2023-02-28T00:39:19;9.90;;;4.25;;
20445;SDS011;10382;49.140;9.234;2023-02-28T00:41:46;10.55;;;4.50;;
20445;SDS011;10382;49.140;9.234;2023-02-28T00:44:13;4.20;;;3.28;;
20445;SDS011;10382;49.140;9.234;2023-02-28T00:46:40;2.63;;;2.40;;
20445;SDS011;10382;49.140;9.234;2023-02-28T00:49:06;2.83;;;2.65;;
20445;SDS011;10382;49.140;9.234;2023-02-28T00:51:33;3.63;;;3.33;;
20445;SDS011;10382;49.140;9.234;2023-02-28T00:54:02;7.40;;;3.78;;
20445;SDS011;10382;49.140;9.234;2023-02-28T00:56:29;5.80;;;4.05;;
20445;SDS011;10382;49.140;9.234;2023-02-28T00:58:55;7.63;;;3.65;;
20445;SDS011;10382;49.140;9.234;2023-02-28T01:01:22;4.00;;;3.30;;
20445;SDS011;10382;49.140;9.234;2023-02-28T01:03:49;5.20;;;3.40;;
20445;SDS011;10382;49.140;9.234;2023-02-28T01:06:16;3.92;;;3.17;;
20445;SDS011;10382;49.140;9.234;2023-02-28T01:08:43;7.22;;;4.00;;
20445;SDS011;10382;49.140;9.234;2023-02-28T01:11:13;4.10;;;3.13;;
20445;SDS011;10382;49.140;9.234;2023-02-28T01:13:42;11.38;;;3.97;;
20445;SDS011;10382;49.140;9.234;2023-02-28T01:16:09;6.75;;;3.00;;
20445;SDS011;10382;49.140;9.234;2023-02-28T01:18:36;6.18;;;4.18;;
20445;SDS011;10382;49.140;9.234;2023-02-28T01:21:03;5.80;;;3.78;;
20445;SDS011;10382;49.140;9.234;2023-02-28T01:23:31;3.95;;;3.55;;
20445;SDS011;10382;49.140;9.234;2023-02-28T01:26:00;5.60;;;3.92;;
20445;SDS011;10382;49.140;9.234;2023-02-28T01:28:31;9.70;;;4.53;;
20445;SDS011;10382;49.140;9.234;2023-02-28T01:30:58;5.05;;;3.33;;
20445;SDS011;10382;49.140;9.234;2023-02-28T01:33:25;6.22;;;3.45;;
20445;SDS011;10382;49.140;9.234;2023-02-28T01:35:57;6.47;;;3.63;;
20445;SDS011;10382;49.140;9.234;2023-02-28T01:38:25;9.32;;;3.33;;
20445;SDS011;10382;49.140;9.234;2023-02-28T01:40:52;5.53;;;4.05;;
20445;SDS011;10382;49.140;9.234;2023-02-28T01:43:20;9.13;;;3.85;;
20445;SDS011;10382;49.140;9.234;2023-02-28T01:45:50;6.85;;;3.85;;
20445;SDS011;10382;49.140;9.234;2023-02-28T01:48:18;5.93;;;4.20;;
20445;SDS011;10382;49.140;9.234;2023-02-28T01:50:47;4.95;;;3.60;;
20445;SDS011;10382;49.140;9.234;2023-02-28T01:53:15;5.75;;;3.50;;
20445;SDS011;10382;49.140;9.234;2023-02-28T01:55:46;3.95;;;3.03;;
20445;SDS011;10382;49.140;9.234;2023-02-28T01:58:16;4.40;;;3.33;;
20445;SDS011;10382;49.140;9.234;2023-02-28T02:00:43;7.25;;;5.22;;
20445;SDS011;10382;49.140;9.234;2023-02-28T02:03:12;10.52;;;4.05;;
20445;SDS011;10382;49.140;9.234;2023-02-28T02:05:41;4.97;;;3.63;;
20445;SDS011;10382;49.140;9.234;2023-02-28T02:08:13;3.53;;;3.20;;
20445;SDS011;10382;49.140;9.234;2023-02-28T02:10:44;7.05;;;5.10;;
20445;SDS011;10382;49.140;9.234;2023-02-28T02:13:24;6.25;;;3.67;;
20445;SDS011;10382;49.140;9.234;2023-02-28T02:16:04;4.13;;;3.58;;
20445;SDS011;10382;49.140;9.234;2023-02-28T02:18:42;5.18;;;3.72;;
20445;SDS011;10382;49.140;9.234;2023-02-28T02:24:15;9.45;;;4.05;;
20445;SDS011;10382;49.140;9.234;2023-02-28T02:27:08;3.65;;;3.35;;
20445;SDS011;10382;49.140;9.234;2023-02-28T02:29:50;9.05;;;4.80;;
20445;SDS011;10382;49.140;9.234;2023-02-28T02:32:44;5.53;;;4.40;;
20445;SDS011;10382;49.140;9.234;2023-02-28T02:35:31;9.15;;;4.20;;
20445;SDS011;10382;49.140;9.234;2023-02-28T02:38:07;11.82;;;4.50;;
20445;SDS011;10382;49.140;9.234;2023-02-28T02:40:42;5.72;;;4.45;;
20445;SDS011;10382;49.140;9.234;2023-02-28T02:43:14;5.80;;;4.18;;
20445;SDS011;10382;49.140;9.234;2023-02-28T02:45:46;8.25;;;4.70;;
20445;SDS011;10382;49.140;9.234;2023-02-28T02:48:17;6.30;;;3.50;;
20445;SDS011;10382;49.140;9.234;2023-02-28T02:50:49;6.13;;;4.88;;
20445;SDS011;10382;49.140;9.234;2023-02-28T02:53:21;9.52;;;3.20;;
20445;SDS011;10382;49.140;9.234;2023-02-28T02:55:54;10.93;;;5.93;;
20445;SDS011;10382;49.140;9.234;2023-02-28T02:58:43;4.78;;;3.97;;
20445;SDS011;10382;49.140;9.234;2023-02-28T03:01:12;11.95;;;5.68;;
20445;SDS011;10382;49.140;9.234;2023-02-28T03:03:53;5.43;;;4.30;;
20445;SDS011;10382;49.140;9.234;2023-02-28T03:06:23;6.50;;;4.85;;
20445;SDS011;10382;49.140;9.234;2023-02-28T03:08:50;5.93;;;4.25;;
20445;SDS011;10382;49.140;9.234;2023-02-28T03:11:17;6.93;;;4.78;;
20445;SDS011;10382;49.140;9.234;2023-02-28T03:13:52;9.70;;;5.32;;
20445;SDS011;10382;49.140;9.234;2023-02-28T03:16:29;4.90;;;3.88;;
20445;SDS011;10382;49.140;9.234;2023-02-28T03:19:09;5.55;;;3.67;;
20445;SDS011;10382;49.140;9.234;2023-02-28T03:21:58;9.15;;;5.50;;
20445;SDS011;10382;49.140;9.234;2023-02-28T03:24:40;6.90;;;3.92;;
20445;SDS011;10382;49.140;9.234;2023-02-28T03:27:15;8.65;;;4.95;;
20445;SDS011;10382;49.140;9.234;2023-02-28T03:29:49;6.00;;;4.15;;
20445;SDS011;10382;49.140;9.234;2023-02-28T03:32:21;6.03;;;4.32;;
20445;SDS011;10382;49.140;9.234;2023-02-28T03:34:58;7.95;;;5.15;;
20445;SDS011;10382;49.140;9.234;2023-02-28T03:37:32;7.55;;;4.40;;
20445;SDS011;10382;49.140;9.234;2023-02-28T03:40:02;5.65;;;4.07;;
20445;SDS011;10382;49.140;9.234;2023-02-28T03:42:33;5.80;;;4.30;;
20445;SDS011;10382;49.140;9.234;2023-02-28T03:45:03;4.25;;;3.83;;
20445;SDS011;10382;49.140;9.234;2023-02-28T03:47:35;5.28;;;3.83;;
20445;SDS011;10382;49.140;9.234;2023-02-28T03:50:06;4.85;;;3.80;;
20445;SDS011;10382;49.140;9.234;2023-02-28T03:52:38;4.05;;;3.65;;
20445;SDS011;10382;49.140;9.234;2023-02-28T03:55:11;4.40;;;3.92;;
20445;SDS011;10382;49.140;9.234;2023-02-28T03:57:42;7.32;;;4.95;;
20445;SDS011;10382;49.140;9.234;2023-02-28T04:00:17;12.25;;;3.90;;
20445;SDS011;10382;49.140;9.234;2023-02-28T04:02:47;5.40;;;4.78;;
20445;SDS011;10382;49.140;9.234;2023-02-28T04:05:17;7.90;;;4.05;;
20445;SDS011;10382;49.140;9.234;2023-02-28T04:07:46;6.93;;;4.72;;
20445;SDS011;10382;49.140;9.234;2023-02-28T04:10:13;5.85;;;5.25;;
20445;SDS011;10382;49.140;9.234;2023-02-28T04:12:41;5.90;;;4.85;;
20445;SDS011;10382;49.140;9.234;2023-02-28T04:15:08;9.15;;;5.60;;
20445;SDS011;10382;49.140;9.234;2023-02-28T04:17:36;7.95;;;5.40;;
20445;SDS011;10382;49.140;9.234;2023-02-28T04:20:04;8.07;;;4.55;;
20445;SDS011;10382;49.140;9.234;2023-02-28T04:22:34;10.50;;;5.85;;
20445;SDS011;10382;49.140;9.234;2023-02-28T04:25:03;7.00;;;4.25;;
20445;SDS011;10382;49.140;9.234;2023-02-28T04:27:31;4.63;;;4.18;;
20445;SDS011;10382;49.140;9.234;2023-02-28T04:29:58;6.45;;;4.57;;
20445;SDS011;10382;49.140;9.234;2023-02-28T04:32:25;5.70;;;4.22;;
20445;SDS011;10382;49.140;9.234;2023-02-28T04:34:52;6.20;;;5.07;;
20445;SDS011;10382;49.140;9.234;2023-02-28T04:37:19;7.78;;;4.15;;
20445;SDS011;10382;49.140;9.234;2023-02-28T04:39:45;7.60;;;4.53;;
20445;SDS011;10382;49.140;9.234;2023-02-28T04:42:14;9.90;;;4.88;;
20445;SDS011;10382;49.140;9.234;2023-02-28T04:44:41;11.88;;;5.22;;
20445;SDS011;10382;49.140;9.234;2023-02-28T04:47:08;8.73;;;4.72;;
20445;SDS011;10382;49.140;9.234;2023-02-28T04:49:35;11.02;;;5.90;;
20445;SDS011;10382;49.140;9.234;2023-02-28T04:52:02;6.15;;;4.28;;
20445;SDS011;10382;49.140;9.234;2023-02-28T04:54:29;6.90;;;5.40;;
20445;SDS011;10382;49.140;9.234;2023-02-28T04:56:55;6.63;;;4.70;;
20445;SDS011;10382;49.140;9.234;2023-02-28T04:59:24;7.70;;;5.28;;
20445;SDS011;10382;49.140;9.234;2023-02-28T05:01:50;6.32;;;4.55;;
20445;SDS011;10382;49.140;9.234;2023-02-28T05:04:17;7.20;;;4.60;;
20445;SDS011;10382;49.140;9.234;2023-02-28T05:06:44;4.93;;;4.40;;
20445;SDS011;10382;49.140;9.234;2023-02-28T05:09:11;8.30;;;5.38;;
20445;SDS011;10382;49.140;9.234;2023-02-28T05:11:38;6.85;;;5.00;;
20445;SDS011;10382;49.140;9.234;2023-02-28T05:14:06;16.10;;;5.72;;
20445;SDS011;10382;49.140;9.234;2023-02-28T05:16:37;7.28;;;4.35;;
20445;SDS011;10382;49.140;9.234;2023-02-28T05:19:05;8.93;;;5.07;;
20445;SDS011;10382;49.140;9.234;2023-02-28T05:21:32;8.77;;;5.28;;
20445;SDS011;10382;49.140;9.234;2023-02-28T05:24:01;10.05;;;4.88;;
20445;SDS011;10382;49.140;9.234;2023-02-28T05:26:30;7.15;;;5.18;;
20445;SDS011;10382;49.140;9.234;2023-02-28T05:28:59;9.27;;;5.22;;
20445;SDS011;10382;49.140;9.234;2023-02-28T05:31:26;7.82;;;4.28;;
20445;SDS011;10382;49.140;9.234;2023-02-28T05:33:54;12.75;;;8.38;;
20445;SDS011;10382;49.140;9.234;2023-02-28T05:36:21;8.38;;;5.68;;
20445;SDS011;10382;49.140;9.234;2023-02-28T05:38:48;8.93;;;5.38;;
20445;SDS011;10382;49.140;9.234;2023-02-28T05:41:16;12.07;;;5.55;;
20445;SDS011;10382;49.140;9.234;2023-02-28T05:43:45;11.40;;;5.93;;
20445;SDS011;10382;49.140;9.234;2023-02-28T05:46:12;9.80;;;5.88;;
20445;SDS011;10382;49.140;9.234;2023-02-28T05:48:40;10.30;;;5.82;;
20445;SDS011;10382;49.140;9.234;2023-02-28T05:51:09;6.18;;;4.28;;
20445;SDS011;10382;49.140;9.234;2023-02-28T05:53:36;8.15;;;5.10;;
20445;SDS011;10382;49.140;9.234;2023-02-28T05:56:03;8.30;;;5.15;;
20445;SDS011;10382;49.140;9.234;2023-02-28T05:58:31;7.13;;;5.47;;
20445;SDS011;10382;49.140;9.234;2023-02-28T06:00:58;7.78;;;6.05;;
20445;SDS011;10382;49.140;9.234;2023-02-28T06:03:26;5.95;;;4.25;;
20445;SDS011;10382;49.140;9.234;2023-02-28T06:05:53;10.38;;;5.28;;
20445;SDS011;10382;49.140;9.234;2023-02-28T06:08:21;5.85;;;4.18;;
20445;SDS011;10382;49.140;9.234;2023-02-28T06:10:48;7.45;;;5.35;;
20445;SDS011;10382;49.140;9.234;2023-02-28T06:13:15;4.97;;;4.30;;
20445;SDS011;10382;49.140;9.234;2023-02-28T06:15:42;7.18;;;5.47;;
20445;SDS011;10382;49.140;9.234;2023-02-28T06:18:09;6.88;;;4.40;;
20445;SDS011;10382;49.140;9.234;2023-02-28T06:20:35;6.93;;;4.57;;
20445;SDS011;10382;49.140;9.234;2023-02-28T06:23:02;8.93;;;5.57;;
20445;SDS011;10382;49.140;9.234;2023-02-28T06:25:31;5.88;;;5.15;;
20445;SDS011;10382;49.140;9.234;2023-02-28T06:27:57;5.88;;;5.03;;
20445;SDS011;10382;49.140;9.234;2023-02-28T06:30:24;7.95;;;5.30;;
20445;SDS011;10382;49.140;9.234;2023-02-28T06:32:53;7.25;;;5.20;;
20445;SDS011;10382;49.140;9.234;2023-02-28T06:35:20;9.10;;;5.03;;
20445;SDS011;10382;49.140;9.234;2023-02-28T06:37:47;7.78;;;6.13;;
20445;SDS011;10382;49.140;9.234;2023-02-28T06:40:14;7.65;;;4.95;;
20445;SDS011;10382;49.140;9.234;2023-02-28T06:42:42;24.80;;;8.70;;
20445;SDS011;10382;49.140;9.234;2023-02-28T06:45:10;8.88;;;5.90;;
20445;SDS011;10382;49.140;9.234;2023-02-28T06:47:37;9.70;;;5.05;;
20445;SDS011;10382;49.140;9.234;2023-02-28T06:50:06;13.73;;;6.13;;
20445;SDS011;10382;49.140;9.234;2023-02-28T06:52:35;10.20;;;6.22;;
20445;SDS011;10382;49.140;9.234;2023-02-28T06:55:02;9.98;;;5.88;;
20445;SDS011;10382;49.140;9.234;2023-02-28T06:57:30;18.92;;;7.35;;
20445;SDS011;10382;49.140;9.234;2023-02-28T07:00:01;8.07;;;5.22;;
20445;SDS011;10382;49.140;9.234;2023-02-28T07:02:32;11.35;;;6.32;;
20445;SDS011;10382;49.140;9.234;2023-02-28T07:04:59;13.07;;;6.45;;
20445;SDS011;10382;49.140;9.234;2023-02-28T07:07:26;14.63;;;6.32;;
20445;SDS011;10382;49.140;9.234;2023-02-28T07:09:53;12.63;;;6.50;;
20445;SDS011;10382;49.140;9.234;2023-02-28T07:12:20;13.07;;;6.15;;
20445;SDS011;10382;49.140;9.234;2023-02-28T07:14:47;13.98;;;8.23;;
20445;SDS011;10382;49.140;9.234;2023-02-28T07:17:15;9.45;;;6.18;;
20445;SDS011;10382;49.140;9.234;2023-02-28T07:19:42;11.48;;;6.93;;
20445;SDS011;10382;49.140;9.234;2023-02-28T07:22:08;10.65;;;6.07;;
20445;SDS011;10382;49.140;9.234;2023-02-28T07:24:35;11.40;;;6.75;;
20445;SDS011;10382;49.140;9.234;2023-02-28T07:27:03;12.97;;;7.37;;
20445;SDS011;10382;49.140;9.234;2023-02-28T07:29:30;13.90;;;6.37;;
20445;SDS011;10382;49.140;9.234;2023-02-28T07:31:57;14.30;;;7.50;;
20445;SDS011;10382;49.140;9.234;2023-02-28T07:34:25;17.23;;;8.30;;
20445;SDS011;10382;49.140;9.234;2023-02-28T07:36:52;12.10;;;6.33;;
20445;SDS011;10382;49.140;9.234;2023-02-28T07:39:19;18.17;;;7.77;;
20445;SDS011;10382;49.140;9.234;2023-02-28T07:41:46;15.57;;;7.10;;
20445;SDS011;10382;49.140;9.234;2023-02-28T07:44:13;14.00;;;7.40;;
20445;SDS011;10382;49.140;9.234;2023-02-28T07:46:40;23.63;;;9.43;;
20445;SDS011;10382;49.140;9.234;2023-02-28T07:49:07;17.23;;;7.75;;
20445;SDS011;10382;49.140;9.234;2023-02-28T07:51:35;19.43;;;8.83;;
20445;SDS011;10382;49.140;9.234;2023-02-28T07:54:02;15.33;;;6.73;;
20445;SDS011;10382;49.140;9.234;2023-02-28T07:56:29;17.37;;;8.37;;
20445;SDS011;10382;49.140;9.234;2023-02-28T07:58:56;15.93;;;7.13;;
20445;SDS011;10382;49.140;9.234;2023-02-28T08:01:23;17.23;;;7.27;;
20445;SDS011;10382;49.140;9.234;2023-02-28T08:03:50;21.17;;;9.10;;
20445;SDS011;10382;49.140;9.234;2023-02-28T08:06:18;16.90;;;7.43;;
20445;SDS011;10382;49.140;9.234;2023-02-28T08:08:48;22.75;;;7.93;;
20445;SDS011;10382;49.140;9.234;2023-02-28T08:11:15;17.43;;;7.77;;
20445;SDS011;10382;49.140;9.234;2023-02-28T08:13:43;35.07;;;10.73;;
20445;SDS011;10382;49.140;9.234;2023-02-28T08:16:11;17.30;;;8.87;;
20445;SDS011;10382;49.140;9.234;2023-02-28T08:18:42;17.10;;;8.10;;
20445;SDS011;10382;49.140;9.234;2023-02-28T08:21:09;19.07;;;8.70;;
20445;SDS011;10382;49.140;9.234;2023-02-28T08:23:36;19.57;;;9.20;;
20445;SDS011;10382;49.140;9.234;2023-02-28T08:26:05;16.73;;;8.37;;
20445;SDS011;10382;49.140;9.234;2023-02-28T08:28:32;25.03;;;9.63;;
20445;SDS011;10382;49.140;9.234;2023-02-28T08:31:00;18.35;;;7.80;;
20445;SDS011;10382;49.140;9.234;2023-02-28T08:33:32;27.10;;;10.10;;
20445;SDS011;10382;49.140;9.234;2023-02-28T08:35:59;19.70;;;8.00;;
20445;SDS011;10382;49.140;9.234;2023-02-28T08:38:26;20.02;;;8.82;;
20445;SDS011;10382;49.140;9.234;2023-02-28T08:40:56;20.33;;;9.25;;
20445;SDS011;10382;49.140;9.234;2023-02-28T08:43:26;19.33;;;8.20;;
20445;SDS011;10382;49.140;9.234;2023-02-28T08:45:53;19.33;;;8.30;;
20445;SDS011;10382;49.140;9.234;2023-02-28T08:48:22;16.97;;;7.03;;
20445;SDS011;10382;49.140;9.234;2023-02-28T08:50:54;20.60;;;8.40;;
20445;SDS011;10382;49.140;9.234;2023-02-28T08:53:21;19.48;;;8.57;;
20445;SDS011;10382;49.140;9.234;2023-02-28T08:55:55;18.77;;;8.57;;
20445;SDS011;10382;49.140;9.234;2023-02-28T08:58:23;20.08;;;8.40;;
20445;SDS011;10382;49.140;9.234;2023-02-28T09:00:51;18.70;;;8.50;;
20445;SDS011;10382;49.140;9.234;2023-02-28T09:03:18;24.83;;;9.70;;
20445;SDS011;10382;49.140;9.234;2023-02-28T09:05:51;18.37;;;8.50;;
20445;SDS011;10382;49.140;9.234;2023-02-28T09:08:19;13.63;;;7.63;;
20445;SDS011;10382;49.140;9.234;2023-02-28T09:10:46;22.60;;;9.93;;
20445;SDS011;10382;49.140;9.234;2023-02-28T09:13:13;18.80;;;8.43;;
20445;SDS011;10382;49.140;9.234;2023-02-28T09:15:40;15.43;;;7.87;;
20445;SDS011;10382;49.140;9.234;2023-02-28T09:18:08;17.07;;;7.50;;
20445;SDS011;10382;49.140;9.234;2023-02-28T09:20:37;23.40;;;10.63;;
20445;SDS011;10382;49.140;9.234;2023-02-28T09:23:04;23.60;;;9.73;;
20445;SDS011;10382;49.140;9.234;2023-02-28T09:25:31;20.33;;;9.63;;
20445;SDS011;10382;49.140;9.234;2023-02-28T09:27:59;16.17;;;8.17;;
20445;SDS011;10382;49.140;9.234;2023-02-28T09:30:26;22.17;;;10.20;;
20445;SDS011;10382;49.140;9.234;2023-02-28T09:32:53;20.77;;;8.30;;
20445;SDS011;10382;49.140;9.234;2023-02-28T09:35:22;30.50;;;11.67;;
20445;SDS011;10382;49.140;9.234;2023-02-28T09:37:52;23.27;;;10.40;;
20445;SDS011;10382;49.140;9.234;2023-02-28T09:40:20;21.60;;;10.00;;
20445;SDS011;10382;49.140;9.234;2023-02-28T09:42:50;18.40;;;8.37;;
20445;SDS011;10382;49.140;9.234;2023-02-28T09:45:22;18.50;;;9.30;;
20445;SDS011;10382;49.140;9.234;2023-02-28T09:48:03;23.93;;;9.50;;
20445;SDS011;10382;49.140;9.234;2023-02-28T09:50:38;18.90;;;8.93;;
20445;SDS011;10382;49.140;9.234;2023-02-28T09:53:10;32.40;;;12.23;;
20445;SDS011;10382;49.140;9.234;2023-02-28T09:55:47;23.07;;;10.83;;
20445;SDS011;10382;49.140;9.234;2023-02-28T09:58:18;21.00;;;9.63;;
20445;SDS011;10382;49.140;9.234;2023-02-28T10:00:50;31.87;;;11.27;;
20445;SDS011;10382;49.140;9.234;2023-02-28T10:03:28;26.17;;;8.57;;
20445;SDS011;10382;49.140;9.234;2023-02-28T10:06:04;29.60;;;10.87;;
20445;SDS011;10382;49.140;9.234;2023-02-28T10:08:36;24.87;;;9.50;;
20445;SDS011;10382;49.140;9.234;2023-02-28T10:11:11;23.00;;;10.40;;
20445;SDS011;10382;49.140;9.234;2023-02-28T10:13:42;20.63;;;8.70;;
20445;SDS011;10382;49.140;9.234;2023-02-28T10:16:20;27.63;;;9.90;;
20445;SDS011;10382;49.140;9.234;2023-02-28T10:18:52;25.33;;;11.13;;
20445;SDS011;10382;49.140;9.234;2023-02-28T10:21:26;22.63;;;9.70;;
20445;SDS011;10382;49.140;9.234;2023-02-28T10:23:59;21.47;;;9.30;;
20445;SDS011;10382;49.140;9.234;2023-02-28T10:26:31;22.80;;;10.03;;
20445;SDS011;10382;49.140;9.234;2023-02-28T10:28:59;24.47;;;9.90;;
20445;SDS011;10382;49.140;9.234;2023-02-28T10:31:27;24.23;;;10.90;;
20445;SDS011;10382;49.140;9.234;2023-02-28T10:33:55;20.33;;;9.13;;
20445;SDS011;10382;49.140;9.234;2023-02-28T10:36:21;18.60;;;8.00;;
20445;SDS011;10382;49.140;9.234;2023-02-28T10:38:50;16.03;;;8.67;;
20445;SDS011;10382;49.140;9.234;2023-02-28T10:41:26;18.10;;;8.80;;
20445;SDS011;10382;49.140;9.234;2023-02-28T10:44:12;21.00;;;8.90;;
20445;SDS011;10382;49.140;9.234;2023-02-28T10:46:40;29.03;;;11.50;;
20445;SDS011;10382;49.140;9.234;2023-02-28T10:49:13;19.63;;;9.60;;
20445;SDS011;10382;49.140;9.234;2023-02-28T10:51:44;23.20;;;9.43;;
20445;SDS011;10382;49.140;9.234;2023-02-28T10:54:15;20.90;;;8.67;;
20445;SDS011;10382;49.140;9.234;2023-02-28T10:56:44;36.60;;;13.37;;
20445;SDS011;10382;49.140;9.234;2023-02-28T10:59:22;22.17;;;9.23;;
20445;SDS011;10382;49.140;9.234;2023-02-28T11:01:55;28.10;;;11.20;;
20445;SDS011;10382;49.140;9.234;2023-02-28T11:04:32;22.67;;;10.27;;
20445;SDS011;10382;49.140;9.234;2023-02-28T11:07:05;25.77;;;10.47;;
20445;SDS011;10382;49.140;9.234;2023-02-28T11:09:44;28.47;;;11.20;;
20445;SDS011;10382;49.140;9.234;2023-02-28T11:12:19;21.50;;;9.27;;
20445;SDS011;10382;49.140;9.234;2023-02-28T11:14:49;29.53;;;11.70;;
20445;SDS011;10382;49.140;9.234;2023-02-28T11:17:19;23.33;;;10.67;;
20445;SDS011;10382;49.140;9.234;2023-02-28T11:19:49;23.67;;;11.30;;
20445;SDS011;10382;49.140;9.234;2023-02-28T11:22:20;18.23;;;10.27;;
20445;SDS011;10382;49.140;9.234;2023-02-28T11:24:49;21.33;;;9.70;;
20445;SDS011;10382;49.140;9.234;2023-02-28T11:33:00;34.43;;;13.20;;
20445;SDS011;10382;49.140;9.234;2023-02-28T11:35:28;28.33;;;12.07;;
20445;SDS011;10382;49.140;9.234;2023-02-28T11:38:00;26.63;;;11.37;;
20445;SDS011;10382;49.140;9.234;2023-02-28T11:40:30;15.50;;;9.00;;
20445;SDS011;10382;49.140;9.234;2023-02-28T11:43:06;20.93;;;10.47;;
20445;SDS011;10382;49.140;9.234;2023-02-28T11:45:48;18.97;;;9.40;;
20445;SDS011;10382;49.140;9.234;2023-02-28T11:48:27;20.70;;;10.37;;
20445;SDS011;10382;49.140;9.234;2023-02-28T11:51:06;19.87;;;9.77;;
20445;SDS011;10382;49.140;9.234;2023-02-28T11:53:53;24.20;;;10.80;;
20445;SDS011;10382;49.140;9.234;2023-02-28T11:56:36;23.13;;;10.53;;
20445;SDS011;10382;49.140;9.234;2023-02-28T11:59:12;23.27;;;11.60;;
20445;SDS011;10382;49.140;9.234;2023-02-28T12:02:03;21.27;;;9.80;;
20445;SDS011;10382;49.140;9.234;2023-02-28T12:04:42;30.90;;;12.60;;
20445;SDS011;10382;49.140;9.234;2023-02-28T12:07:21;24.67;;;11.53;;
20445;SDS011;10382;49.140;9.234;2023-02-28T12:09:58;25.47;;;10.83;;
20445;SDS011;10382;49.140;9.234;2023-02-28T12:12:37;21.73;;;9.90;;
20445;SDS011;10382;49.140;9.234;2023-02-28T12:15:21;25.73;;;12.10;;
20445;SDS011;10382;49.140;9.234;2023-02-28T12:18:02;21.07;;;9.93;;
20445;SDS011;10382;49.140;9.234;2023-02-28T12:20:40;22.73;;;10.80;;
20445;SDS011;10382;49.140;9.234;2023-02-28T12:23:19;22.43;;;10.17;;
20445;SDS011;10382;49.140;9.234;2023-02-28T12:26:04;26.20;;;10.67;;
20445;SDS011;10382;49.140;9.234;2023-02-28T12:28:37;16.70;;;9.93;;
20445;SDS011;10382;49.140;9.234;2023-02-28T12:31:09;17.60;;;9.83;;
20445;SDS011;10382;49.140;9.234;2023-02-28T12:33:40;25.13;;;10.30;;
20445;SDS011;10382;49.140;9.234;2023-02-28T12:36:11;30.30;;;12.07;;
20445;SDS011;10382;49.140;9.234;2023-02-28T12:38:44;24.83;;;10.53;;
20445;SDS011;10382;49.140;9.234;2023-02-28T12:41:16;29.07;;;12.03;;
20445;SDS011;10382;49.140;9.234;2023-02-28T12:43:46;23.90;;;11.23;;
20445;SDS011;10382;49.140;9.234;2023-02-28T12:46:19;25.20;;;10.93;;
20445;SDS011;10382;49.140;9.234;2023-02-28T12:48:50;22.23;;;10.53;;
20445;SDS011;10382;49.140;9.234;2023-02-28T12:51:21;23.27;;;12.00;;
20445;SDS011;10382;49.140;9.234;2023-02-28T12:53:53;23.77;;;12.03;;
20445;SDS011;10382;49.140;9.234;2023-02-28T12:56:30;24.20;;;11.10;;
20445;SDS011;10382;49.140;9.234;2023-02-28T12:59:06;21.03;;;10.70;;
20445;SDS011;10382;49.140;9.234;2023-02-28T13:05:10;20.87;;;10.97;;
20445;SDS011;10382;49.140;9.234;2023-02-28T13:07:59;33.47;;;12.53;;
20445;SDS011;10382;49.140;9.234;2023-02-28T13:10:46;18.40;;;10.27;;
20445;SDS011;10382;49.140;9.234;2023-02-28T13:13:17;16.27;;;10.10;;
20445;SDS011;10382;49.140;9.234;2023-02-28T13:18:33;24.63;;;13.17;;
20445;SDS011;10382;49.140;9.234;2023-02-28T13:21:04;22.43;;;11.20;;
20445;SDS011;10382;49.140;9.234;2023-02-28T13:23:41;18.10;;;9.97;;
20445;SDS011;10382;49.140;9.234;2023-02-28T13:29:28;20.20;;;11.33;;
20445;SDS011;10382;49.140;9.234;2023-02-28T13:38:21;21.40;;;10.80;;
20445;SDS011;10382;49.140;9.234;2023-02-28T13:44:08;28.70;;;11.03;;
20445;SDS011;10382;49.140;9.234;2023-02-28T13:47:18;23.73;;;10.83;;
20445;SDS011;10382;49.140;9.234;2023-02-28T13:49:43;27.07;;;13.90;;
20445;SDS011;10382;49.140;9.234;2023-02-28T13:52:12;16.47;;;9.80;;
20445;SDS011;10382;49.140;9.234;2023-02-28T13:54:56;33.63;;;15.07;;
20445;SDS011;10382;49.140;9.234;2023-02-28T13:57:44;30.40;;;11.80;;
20445;SDS011;10382;49.140;9.234;2023-02-28T14:00:30;21.03;;;10.80;;
20445;SDS011;10382;49.140;9.234;2023-02-28T14:03:18;30.20;;;12.37;;
20445;SDS011;10382;49.140;9.234;2023-02-28T14:06:14;23.03;;;11.00;;
20445;SDS011;10382;49.140;9.234;2023-02-28T14:08:52;25.53;;;12.00;;
20445;SDS011;10382;49.140;9.234;2023-02-28T14:11:24;23.80;;;11.83;;
20445;SDS011;10382;49.140;9.234;2023-02-28T14:13:54;22.33;;;11.97;;
20445;SDS011;10382;49.140;9.234;2023-02-28T14:16:21;21.90;;;12.17;;
20445;SDS011;10382;49.140;9.234;2023-02-28T14:18:55;17.33;;;10.60;;
20445;SDS011;10382;49.140;9.234;2023-02-28T14:21:24;28.17;;;12.63;;
20445;SDS011;10382;49.140;9.234;2023-02-28T14:24:01;41.57;;;15.80;;
20445;SDS011;10382;49.140;9.234;2023-02-28T14:27:03;28.17;;;12.67;;
20445;SDS011;10382;49.140;9.234;2023-02-28T14:29:53;32.30;;;13.57;;
20445;SDS011;10382;49.140;9.234;2023-02-28T14:32:39;20.40;;;9.93;;
20445;SDS011;10382;49.140;9.234;2023-02-28T14:35:16;30.47;;;12.10;;
20445;SDS011;10382;49.140;9.234;2023-02-28T14:37:55;26.17;;;12.10;;
20445;SDS011;10382;49.140;9.234;2023-02-28T14:40:25;24.70;;;11.07;;
20445;SDS011;10382;49.140;9.234;2023-02-28T14:42:55;28.57;;;11.80;;
20445;SDS011;10382;49.140;9.234;2023-02-28T14:45:24;40.67;;;12.60;;
20445;SDS011;10382;49.140;9.234;2023-02-28T14:47:55;25.73;;;10.30;;
20445;SDS011;10382;49.140;9.234;2023-02-28T14:50:27;23.63;;;11.20;;
20445;SDS011;10382;49.140;9.234;2023-02-28T14:52:56;20.53;;;11.00;;
20445;SDS011;10382;49.140;9.234;2023-02-28T14:55:27;20.33;;;10.37;;
20445;SDS011;10382;49.140;9.234;2023-02-28T14:57:57;25.70;;;11.30;;
20445;SDS011;10382;49.140;9.234;2023-02-28T15:00:28;24.47;;;11.80;;
20445;SDS011;10382;49.140;9.234;2023-02-28T15:02:58;32.77;;;13.33;;
20445;SDS011;10382;49.140;9.234;2023-02-28T15:05:28;24.53;;;11.47;;
20445;SDS011;10382;49.140;9.234;2023-02-28T15:08:04;31.07;;;11.43;;
20445;SDS011;10382;49.140;9.234;2023-02-28T15:10:33;27.60;;;11.87;;
20445;SDS011;10382;49.140;9.234;2023-02-28T15:13:01;40.87;;;16.30;;
20445;SDS011;10382;49.140;9.234;2023-02-28T15:15:35;21.77;;;11.10;;
20445;SDS011;10382;49.140;9.234;2023-02-28T15:18:10;20.87;;;10.60;;
20445;SDS011;10382;49.140;9.234;2023-02-28T15:20:48;32.43;;;13.03;;
20445;SDS011;10382;49.140;9.234;2023-02-28T15:23:17;24.83;;;12.10;;
20445;SDS011;10382;49.140;9.234;2023-02-28T15:25:46;41.67;;;13.23;;
20445;SDS011;10382;49.140;9.234;2023-02-28T15:28:16;19.23;;;10.00;;